Time;durP1;ratioP1;P1;durP2;ratioP2;P2;SDS_P1;SDS_P2;PMS_P1;PMS_P2;Temp;Humidity;BMP_temperature;BMP_pressure;BME280_temperature;BME280_humidity;BME280_pressure;Samples;Min_cycle;Max_cycle;Signal;HPM_P1;HPM_P2
2024/01/07 00:00:08;;;;;;;5.37;4.27;;;2.10;91.70;;;3.60;62.08;101868.09;3082441;46;20427;-67
2024/01/07 00:02:37;;;;;;;8.27;4.80;;;2.10;91.50;;;3.56;62.13;101871.84;3082232;46;20442;-64
2024/01/07 00:05:06;;;;;;;7.93;4.83;;;2.00;91.50;;;3.51;62.32;101876.50;3082672;46;20436;-67
2024/01/07 00:07:34;;;;;;;6.67;4.70;;;2.00;91.50;;;3.47;62.51;101882.84;3082126;46;21010;-67
2024/01/07 00:10:03;;;;;;;5.47;4.20;;;2.00;91.60;;;3.47;62.72;101895.84;3082130;46;20438;-67
2024/01/07 00:12:31;;;;;;;6.27;4.83;;;2.00;91.80;;;3.46;62.74;101896.78;3082226;46;20560;-67
2024/01/07 00:15:00;;;;;;;6.57;4.27;;;2.00;91.80;;;3.45;62.72;101900.31;3082488;46;20496;-67
2024/01/07 00:17:28;;;;;;;4.80;4.10;;;1.90;91.90;;;3.45;63.08;101902.13;3081867;46;20568;-67
2024/01/07 00:19:57;;;;;;;7.00;4.43;;;1.90;91.90;;;3.47;62.78;101895.84;3082073;46;20439;-66
2024/01/07 00:22:25;;;;;;;5.20;4.27;;;1.90;92.00;;;3.46;62.77;101896.78;3082740;46;20985;-66
2024/01/07 00:24:53;;;;;;;6.10;3.93;;;1.90;91.80;;;3.47;62.34;101903.66;3082314;46;20446;-67
2024/01/07 00:27:22;;;;;;;6.10;4.10;;;1.90;91.70;;;3.46;62.64;101904.59;3081743;46;20450;-67
2024/01/07 00:29:50;;;;;;;4.93;3.60;;;1.90;91.80;;;3.48;62.52;101902.72;3082144;46;20450;-67
2024/01/07 00:32:19;;;;;;;6.33;4.07;;;1.90;91.80;;;3.50;62.45;101913.88;3081893;46;21110;-67
2024/01/07 00:34:47;;;;;;;9.17;5.27;;;1.90;91.60;;;3.47;62.32;101914.06;3082015;46;20459;-67
2024/01/07 00:37:19;;;;;;;4.20;3.40;;;1.90;91.60;;;3.46;62.35;101920.22;3081622;46;20442;-67
2024/01/07 00:39:48;;;;;;;5.13;4.17;;;1.90;91.60;;;3.50;62.74;101918.22;3082013;46;20990;-65
2024/01/07 00:42:16;;;;;;;5.93;4.03;;;1.90;91.90;;;3.51;62.29;101920.75;3081998;46;20446;-67
2024/01/07 00:44:44;;;;;;;7.43;4.20;;;1.90;91.80;;;3.50;62.34;101923.44;3081584;46;21005;-66
2024/01/07 00:47:13;;;;;;;4.93;3.63;;;1.90;92.10;;;3.52;62.62;101927.59;3081589;46;20464;-67
2024/01/07 00:49:41;;;;;;;4.47;3.90;;;1.90;91.90;;;3.48;61.99;101933.09;3081630;46;20586;-67
2024/01/07 00:52:10;;;;;;;5.97;3.73;;;1.90;91.50;;;3.38;62.04;101936.31;3082075;46;20915;-67
2024/01/07 00:54:39;;;;;;;5.97;4.27;;;1.90;91.50;;;3.30;62.33;101932.56;3081894;46;20434;-67
2024/01/07 00:57:09;;;;;;;8.33;4.10;;;1.80;91.40;;;3.26;62.83;101936.25;3081550;46;20532;-67
2024/01/07 00:59:38;;;;;;;5.30;3.90;;;1.80;91.60;;;3.28;62.96;101942.22;3081855;46;20426;-67
2024/01/07 01:02:07;;;;;;;5.73;4.00;;;1.80;91.80;;;3.26;62.52;101944.06;3081982;46;20434;-67
2024/01/07 01:04:39;;;;;;;5.80;4.20;;;1.70;91.70;;;3.27;62.75;101961.34;3081880;46;20491;-67
2024/01/07 01:07:08;;;;;;;4.43;3.40;;;1.70;91.90;;;3.29;62.86;101960.31;3081028;46;20439;-67
2024/01/07 01:09:37;;;;;;;5.73;4.07;;;1.70;92.00;;;3.28;62.96;101957.81;3081736;46;20476;-67
2024/01/07 01:12:05;;;;;;;6.80;4.30;;;1.70;91.90;;;3.26;62.81;101962.25;3081922;46;20519;-67
2024/01/07 01:14:33;;;;;;;4.83;3.53;;;1.70;91.90;;;3.22;63.26;101971.19;3081505;46;20492;-67
2024/01/07 01:17:02;;;;;;;4.27;3.27;;;1.70;92.00;;;3.15;62.96;101970.75;3081464;46;20575;-67
2024/01/07 01:19:30;;;;;;;4.37;3.30;;;1.70;92.00;;;3.07;63.46;101967.78;3081517;46;20438;-65
2024/01/07 01:22:00;;;;;;;7.37;3.60;;;1.60;92.10;;;3.01;64.17;101967.34;3082112;46;21001;-66
2024/01/07 01:24:28;;;;;;;4.57;3.57;;;1.60;92.60;;;2.96;64.59;101967.66;3081546;46;20516;-67
2024/01/07 01:26:57;;;;;;;5.63;3.90;;;1.50;92.80;;;2.94;65.15;101973.88;3081069;46;20438;-67
2024/01/07 01:29:25;;;;;;;6.03;3.60;;;1.50;92.90;;;2.92;65.08;101970.53;3081471;46;20435;-67
2024/01/07 01:31:53;;;;;;;6.47;3.70;;;1.50;93.30;;;2.88;65.73;101977.66;3081345;46;21160;-67
2024/01/07 01:34:22;;;;;;;5.83;3.47;;;1.40;93.40;;;2.87;66.04;101982.97;3081397;46;20477;-67
2024/01/07 01:36:50;;;;;;;5.63;3.80;;;1.40;93.90;;;2.83;66.37;101976.31;3081307;46;20466;-67
2024/01/07 01:39:19;;;;;;;4.70;3.43;;;1.40;94.10;;;2.76;67.01;101990.59;3081306;46;21082;-67
2024/01/07 01:41:47;;;;;;;5.60;3.30;;;1.30;94.40;;;2.71;67.15;101993.44;3081342;46;20476;-66
2024/01/07 01:44:15;;;;;;;4.77;3.90;;;1.30;94.60;;;2.68;67.46;101997.09;3081370;46;20438;-67
2024/01/07 01:46:46;;;;;;;8.47;4.57;;;1.20;94.80;;;2.69;67.75;101997.91;3081234;46;20549;-66
2024/01/07 01:49:15;;;;;;;5.83;4.13;;;1.20;94.90;;;2.69;67.74;101998.75;3081414;46;20476;-66
2024/01/07 01:51:44;;;;;;;5.53;4.27;;;1.20;95.00;;;2.69;67.57;102008.31;3080720;46;20430;-67
2024/01/07 01:54:13;;;;;;;6.57;4.13;;;1.10;94.90;;;2.69;67.83;102005.72;3081787;46;20989;-67
2024/01/07 01:56:42;;;;;;;5.47;3.67;;;1.10;95.00;;;2.68;67.98;102012.69;3079974;46;21050;-67
2024/01/07 01:59:12;;;;;;;6.10;4.07;;;1.10;95.10;;;2.66;67.91;102014.53;3081381;46;20466;-67
2024/01/07 02:01:40;;;;;;;6.50;4.53;;;1.10;95.00;;;2.66;68.02;102009.31;3081024;46;20427;-67
2024/01/07 02:04:09;;;;;;;5.50;4.30;;;1.10;95.20;;;2.67;67.73;102016.22;3080639;46;20486;-67
2024/01/07 02:06:38;;;;;;;8.00;4.80;;;1.10;95.20;;;2.71;68.35;102016.84;3080902;46;21037;-68
2024/01/07 02:09:07;;;;;;;10.87;5.50;;;1.10;95.30;;;2.74;67.98;102017.50;3081149;46;20434;-67
2024/01/07 02:11:35;;;;;;;6.93;4.63;;;1.10;95.30;;;2.80;68.33;102021.50;3080522;46;21076;-67
2024/01/07 02:14:03;;;;;;;7.37;5.03;;;1.10;95.30;;;2.83;68.11;102025.69;3080981;46;20992;-67
2024/01/07 02:16:32;;;;;;;6.57;5.20;;;1.10;95.10;;;2.88;68.26;102023.63;3080734;46;20428;-65
2024/01/07 02:19:01;;;;;;;5.63;4.47;;;1.20;95.20;;;2.92;67.47;102033.75;3081957;46;20446;-67
2024/01/07 02:21:29;;;;;;;4.97;4.17;;;1.30;95.40;;;2.94;66.90;102036.25;3083231;46;21071;-66
2024/01/07 02:23:58;;;;;;;6.23;5.13;;;1.30;94.50;;;2.95;66.50;102035.34;3083563;46;21072;-67
2024/01/07 02:26:26;;;;;;;6.90;3.83;;;1.30;94.10;;;2.95;66.00;102035.34;3083324;46;21009;-67
2024/01/07 02:28:56;;;;;;;6.30;3.33;;;1.30;93.90;;;2.93;65.33;102037.19;3082926;46;20453;-67
2024/01/07 02:31:24;;;;;;;7.07;3.80;;;1.30;93.30;;;2.95;65.24;102046.56;3083326;46;20430;-67
2024/01/07 02:33:53;;;;;;;6.43;3.50;;;1.30;92.90;;;2.95;65.27;102041.34;3083487;46;20433;-66
2024/01/07 02:36:21;;;;;;;4.50;3.23;;;1.30;93.10;;;2.95;64.51;102038.75;3082827;46;20434;-66
2024/01/07 02:38:49;;;;;;;5.80;3.33;;;1.30;92.70;;;2.99;64.65;102044.63;3083049;46;21047;-68
2024/01/07 02:41:19;;;;;;;4.20;2.93;;;1.40;92.90;;;3.00;64.20;102041.06;3082624;46;20441;-67
2024/01/07 02:43:48;;;;;;;4.23;2.83;;;1.40;92.60;;;3.00;63.97;102046.28;3083266;46;20486;-67
2024/01/07 02:46:16;;;;;;;3.43;2.83;;;1.40;92.40;;;2.98;63.46;102048.13;3083159;46;20500;-69
2024/01/07 02:48:44;;;;;;;6.97;3.10;;;1.40;91.80;;;2.98;63.47;102053.34;3082302;46;20488;-67
2024/01/07 02:51:13;;;;;;;4.83;2.63;;;1.40;92.00;;;2.98;62.99;102059.38;3082925;46;20502;-65
2024/01/07 02:53:41;;;;;;;4.77;3.23;;;1.40;91.80;;;2.98;62.95;102066.34;3083048;46;21072;-67
2024/01/07 02:56:10;;;;;;;4.23;2.60;;;1.40;91.60;;;2.98;62.61;102071.53;3083158;46;20552;-67
2024/01/07 02:58:38;;;;;;;4.90;3.00;;;1.40;91.60;;;2.95;62.13;102076.94;3082489;46;20449;-67
2024/01/07 03:01:10;;;;;;;3.87;2.73;;;1.40;91.40;;;2.94;62.36;102072.66;3083088;46;20458;-67
2024/01/07 03:03:39;;;;;;;3.87;2.50;;;1.40;91.60;;;2.96;62.82;102078.59;3083020;46;20433;-67
2024/01/07 03:06:08;;;;;;;4.87;3.00;;;1.30;91.60;;;3.01;63.01;102087.78;3083044;46;20567;-67
2024/01/07 03:08:36;;;;;;;5.03;3.10;;;1.40;91.90;;;3.05;62.64;102083.22;3082541;46;21116;-67
2024/01/07 03:11:08;;;;;;;4.47;2.93;;;1.40;91.80;;;3.10;62.53;102086.38;3082905;46;20433;-67
2024/01/07 03:13:36;;;;;;;4.70;2.60;;;1.40;91.60;;;3.10;61.73;102081.19;3082736;46;20474;-67
2024/01/07 03:16:06;;;;;;;3.00;2.50;;;1.40;91.30;;;3.07;61.65;102078.78;3082798;46;20488;-67
2024/01/07 03:18:34;;;;;;;3.67;2.33;;;1.40;91.00;;;3.04;61.23;102086.78;3081674;46;20470;-64
2024/01/07 03:21:03;;;;;;;4.10;2.80;;;1.40;90.80;;;3.01;61.62;102085.19;3082767;46;20638;-67
2024/01/07 03:23:31;;;;;;;4.87;2.73;;;1.50;91.10;;;3.00;61.30;102090.47;3083087;46;21118;-66
2024/01/07 03:25:59;;;;;;;3.20;2.60;;;1.40;90.90;;;3.00;61.66;102087.88;3082643;46;20492;-67
2024/01/07 03:28:28;;;;;;;2.73;2.20;;;1.40;91.10;;;3.00;61.10;102095.66;3082250;46;20438;-67
2024/01/07 03:30:56;;;;;;;3.77;2.73;;;1.40;90.50;;;2.99;61.24;102094.84;3082345;46;20559;-65
2024/01/07 03:33:25;;;;;;;4.23;2.30;;;1.40;91.00;;;3.01;61.03;102097.34;3083077;46;20462;-67
2024/01/07 03:35:53;;;;;;;4.53;2.53;;;1.40;90.80;;;3.03;61.17;102090.28;3082892;46;20437;-66
2024/01/07 03:38:22;;;;;;;3.37;2.60;;;1.50;90.90;;;3.04;60.69;102102.38;3082404;46;20481;-67
2024/01/07 03:40:50;;;;;;;2.70;2.10;;;1.40;90.60;;;2.99;60.23;102104.41;3083260;46;20565;-66
2024/01/07 03:43:18;;;;;;;2.97;2.27;;;1.40;90.30;;;2.95;60.91;102102.94;3082680;46;20491;-66
2024/01/07 03:45:49;;;;;;;5.33;2.60;;;1.40;90.50;;;2.96;60.83;102104.59;3082999;46;20499;-67
2024/01/07 03:48:18;;;;;;;3.77;2.30;;;1.40;90.20;;;2.95;60.38;102100.34;3082276;46;20449;-67
2024/01/07 03:50:46;;;;;;;4.10;2.30;;;1.40;90.10;;;2.96;60.33;102115.00;3082295;46;20438;-67
2024/01/07 03:53:16;;;;;;;4.47;2.27;;;1.40;90.10;;;2.96;60.14;102109.78;3082348;46;20949;-67
2024/01/07 03:55:44;;;;;;;3.80;2.20;;;1.40;90.10;;;2.95;60.51;102119.34;3082798;46;20434;-67
2024/01/07 03:58:12;;;;;;;3.10;2.03;;;1.40;90.20;;;2.93;60.08;102120.38;3082236;46;20486;-67
2024/01/07 04:00:41;;;;;;;2.67;2.30;;;1.40;90.00;;;2.92;60.41;102113.50;3082429;46;20465;-65
2024/01/07 04:03:09;;;;;;;5.90;2.33;;;1.40;90.20;;;2.92;60.42;102118.72;3082780;46;20441;-67
2024/01/07 04:05:38;;;;;;;2.83;2.47;;;1.40;90.20;;;2.92;59.87;102123.91;3082791;46;20428;-67
2024/01/07 04:08:10;;;;;;;3.07;2.33;;;1.40;90.00;;;2.90;60.16;102126.59;3082021;46;21139;-67
2024/01/07 04:10:38;;;;;;;2.37;1.83;;;1.40;90.00;;;2.91;60.21;102143.03;3082411;46;20438;-65
2024/01/07 04:13:07;;;;;;;3.23;2.27;;;1.40;90.00;;;2.92;60.09;102139.50;3082750;46;20441;-67
2024/01/07 04:15:36;;;;;;;1.90;1.50;;;1.40;90.10;;;2.89;59.60;102137.06;3082318;46;21091;-67
2024/01/07 04:18:05;;;;;;;2.63;1.97;;;1.40;89.20;;;2.87;59.54;102136.34;3081964;46;20454;-67
2024/01/07 04:20:33;;;;;;;2.80;1.83;;;1.40;88.90;;;2.84;59.72;102152.09;3082438;46;20446;-67
2024/01/07 04:23:02;;;;;;;2.87;2.00;;;1.30;89.10;;;2.85;59.79;102153.78;3081933;46;20466;-65
2024/01/07 04:25:30;;;;;;;2.87;1.67;;;1.30;89.80;;;2.87;59.92;102151.94;3082405;46;20483;-67
2024/01/07 04:27:59;;;;;;;2.30;2.10;;;1.30;89.70;;;2.87;59.71;102157.13;3081632;46;20447;-68
2024/01/07 04:30:27;;;;;;;3.07;2.00;;;1.40;89.60;;;2.89;59.99;102160.47;3082461;46;21170;-67
2024/01/07 04:32:55;;;;;;;2.80;1.80;;;1.40;89.80;;;2.94;59.81;102158.44;3082043;46;20439;-67
2024/01/07 04:35:24;;;;;;;3.63;2.20;;;1.40;89.60;;;2.96;59.66;102162.63;3082251;46;21124;-66
2024/01/07 04:37:52;;;;;;;2.27;1.60;;;1.40;89.40;;;2.97;59.71;102177.28;3081696;46;20511;-67
2024/01/07 04:40:21;;;;;;;2.63;1.60;;;1.40;90.00;;;2.95;59.04;102173.13;3082101;46;21102;-67
2024/01/07 04:42:49;;;;;;;1.90;1.50;;;1.40;88.30;;;2.90;59.17;102180.38;3081566;46;20649;-66
2024/01/07 04:45:18;;;;;;;2.10;1.73;;;1.40;88.40;;;2.85;58.88;102182.38;3082349;46;20438;-69
2024/01/07 04:47:46;;;;;;;3.33;2.00;;;1.40;88.20;;;2.80;59.09;102184.41;3081637;46;20458;-67
2024/01/07 04:50:19;;;;;;;2.70;1.70;;;1.30;88.50;;;2.77;59.73;102195.81;3081663;46;20490;-67
2024/01/07 04:52:47;;;;;;;2.93;2.03;;;1.30;88.80;;;2.73;59.34;102192.53;3081896;46;21084;-67
2024/01/07 04:55:16;;;;;;;2.67;1.90;;;1.30;88.40;;;2.69;59.15;102195.41;3082015;46;20437;-66
2024/01/07 04:57:44;;;;;;;2.80;2.03;;;1.30;88.30;;;2.65;59.30;102206.91;3081279;46;20454;-67
2024/01/07 05:00:13;;;;;;;4.00;1.80;;;1.20;88.50;;;2.57;59.32;102207.34;3081809;46;21091;-67
2024/01/07 05:02:41;;;;;;;3.23;1.80;;;1.20;88.20;;;2.51;59.54;102212.06;3081543;46;21022;-67
2024/01/07 05:05:10;;;;;;;1.93;1.73;;;1.20;88.40;;;2.43;59.53;102212.50;3081663;46;20510;-69
2024/01/07 05:07:38;;;;;;;3.77;1.90;;;1.10;88.40;;;2.38;59.63;102222.28;3081377;46;20446;-67
2024/01/07 05:10:07;;;;;;;2.20;1.87;;;1.10;88.80;;;2.33;60.03;102219.09;3081748;46;20434;-67
2024/01/07 05:12:35;;;;;;;3.37;1.63;;;1.00;88.80;;;2.29;59.92;102228.00;3082011;46;20434;-65
2024/01/07 05:15:06;;;;;;;2.43;1.70;;;1.00;88.70;;;2.26;60.03;102233.34;3081870;46;20496;-67
2024/01/07 05:17:34;;;;;;;1.80;1.70;;;0.90;88.90;;;2.25;60.52;102234.28;3081634;46;20518;-66
2024/01/07 05:20:03;;;;;;;2.93;1.67;;;0.90;89.60;;;2.23;60.25;102243.94;3081087;46;21062;-69
2024/01/07 05:22:32;;;;;;;1.97;1.40;;;0.90;89.50;;;2.22;60.40;102241.41;3081712;46;20529;-67
2024/01/07 05:25:00;;;;;;;3.47;1.50;;;0.90;89.80;;;2.21;60.53;102250.13;3081918;46;20467;-67
2024/01/07 05:27:29;;;;;;;2.67;1.63;;;0.90;89.70;;;2.18;60.34;102261.53;3081034;46;20446;-67
2024/01/07 05:29:57;;;;;;;3.73;2.00;;;0.80;89.30;;;2.14;60.59;102265.19;3081548;46;20958;-66
2024/01/07 05:32:26;;;;;;;2.90;1.97;;;0.80;89.20;;;2.13;60.48;102273.91;3081283;46;21025;-67
2024/01/07 05:34:54;;;;;;;1.80;1.67;;;0.80;89.70;;;2.13;60.68;102281.69;3081788;46;20463;-67
2024/01/07 05:37:23;;;;;;;2.53;2.10;;;0.80;90.00;;;2.14;60.42;102274.75;3081214;46;21043;-67
2024/01/07 05:39:51;;;;;;;1.60;1.50;;;0.70;89.40;;;2.11;60.16;102280.94;3081403;46;20435;-67
2024/01/07 05:42:19;;;;;;;2.33;1.60;;;0.70;89.00;;;2.10;60.55;102289.66;3081307;46;21216;-67
2024/01/07 05:44:48;;;;;;;2.40;1.60;;;0.70;89.50;;;2.12;60.67;102289.56;3081696;46;20500;-65
2024/01/07 05:47:16;;;;;;;1.90;1.53;;;0.70;89.60;;;2.12;60.24;102298.19;3081238;46;20449;-67
2024/01/07 05:49:45;;;;;;;2.33;1.53;;;0.70;89.30;;;2.14;60.48;102291.16;3080926;46;20491;-67
2024/01/07 05:52:13;;;;;;;1.60;1.50;;;0.70;89.60;;;2.17;60.38;102296.19;3081188;46;20459;-67
2024/01/07 05:54:42;;;;;;;1.90;1.50;;;0.70;89.40;;;2.23;60.52;102300.22;3081032;46;20545;-67
2024/01/07 05:57:12;;;;;;;1.83;1.43;;;0.70;89.60;;;2.29;60.49;102305.91;3081486;46;20532;-67
2024/01/07 05:59:40;;;;;;;3.67;1.70;;;0.80;90.00;;;2.36;60.49;102299.47;3081139;46;20435;-66
2024/01/07 06:02:09;;;;;;;1.50;1.40;;;0.80;90.10;;;2.44;60.08;102299.91;3081382;46;20433;-66
2024/01/07 06:04:38;;;;;;;2.33;1.47;;;0.90;89.80;;;2.48;59.94;102309.19;3081298;46;20564;-67
2024/01/07 06:07:07;;;;;;;2.23;1.47;;;0.90;89.70;;;2.55;59.52;102318.31;3080391;46;21193;-67
2024/01/07 06:09:35;;;;;;;2.37;1.73;;;1.00;89.90;;;2.60;59.82;102316.31;3080880;46;20430;-67
2024/01/07 06:12:04;;;;;;;2.83;1.70;;;1.00;89.60;;;2.63;59.68;102320.50;3081232;46;20437;-66
2024/01/07 06:14:33;;;;;;;1.93;1.50;;;1.00;89.10;;;2.64;59.48;102323.00;3081250;46;20434;-66
2024/01/07 06:17:01;;;;;;;2.03;1.83;;;1.10;89.10;;;2.70;59.66;102337.44;3081068;46;20508;-67
2024/01/07 06:19:30;;;;;;;1.93;1.60;;;1.10;89.40;;;2.78;59.50;102337.03;3080686;46;20959;-68
2024/01/07 06:21:58;;;;;;;3.80;1.90;;;1.20;89.60;;;2.84;59.73;102339.25;3081307;46;20430;-67
2024/01/07 06:24:27;;;;;;;1.60;1.43;;;1.20;89.70;;;2.91;59.54;102335.41;3080988;46;20918;-65
2024/01/07 06:26:55;;;;;;;2.03;1.60;;;1.30;89.70;;;2.96;59.27;102344.63;3080797;46;21027;-66
2024/01/07 06:29:23;;;;;;;1.77;1.67;;;1.30;89.40;;;3.02;59.11;102343.47;3080941;46;20438;-67
2024/01/07 06:31:52;;;;;;;4.43;2.00;;;1.40;89.40;;;3.09;59.43;102347.38;3081040;46;20433;-66
2024/01/07 06:34:21;;;;;;;3.33;1.80;;;1.50;89.10;;;3.13;58.70;102361.88;3080721;46;20434;-65
2024/01/07 06:36:49;;;;;;;3.27;1.63;;;1.50;88.60;;;3.14;58.74;102359.19;3080932;46;20481;-67
2024/01/07 06:39:17;;;;;;;2.40;1.53;;;1.50;88.60;;;3.19;58.41;102356.31;3081246;46;20438;-67
2024/01/07 06:41:46;;;;;;;1.73;1.60;;;1.60;88.00;;;3.18;58.63;102357.25;3080466;46;20455;-65
2024/01/07 06:44:15;;;;;;;2.10;1.80;;;1.60;88.30;;;3.15;58.69;102365.22;3080819;46;20484;-66
2024/01/07 06:46:43;;;;;;;2.57;1.30;;;1.60;88.20;;;3.17;58.87;102373.78;3080200;46;20568;-67
2024/01/07 06:49:11;;;;;;;2.83;1.50;;;1.60;88.80;;;3.20;59.09;102369.25;3080648;46;20568;-66
2024/01/07 06:51:40;;;;;;;5.43;1.43;;;1.60;88.70;;;3.23;58.70;102368.25;3080852;46;20600;-63
2024/01/07 06:54:08;;;;;;;2.13;1.63;;;1.60;88.40;;;3.26;58.68;102370.66;3081020;46;21079;-67
2024/01/07 06:56:41;;;;;;;2.50;1.97;;;1.70;88.30;;;3.27;58.80;102372.34;3080496;46;20442;-67
2024/01/07 06:59:10;;;;;;;2.20;1.77;;;1.70;88.50;;;3.31;58.85;102368.63;3080949;46;20500;-67
2024/01/07 07:01:38;;;;;;;3.87;1.77;;;1.70;88.80;;;3.35;58.73;102370.16;3080299;46;21022;-67
2024/01/07 07:04:07;;;;;;;1.63;1.53;;;1.80;88.80;;;3.38;58.90;102376.00;3081228;46;20466;-67
2024/01/07 07:06:35;;;;;;;2.67;1.70;;;1.80;88.60;;;3.42;58.78;102379.28;3082961;46;20433;-67
2024/01/07 07:09:04;;;;;;;2.07;1.50;;;1.80;88.70;;;3.44;58.88;102385.22;3083229;46;20466;-67
2024/01/07 07:11:32;;;;;;;2.83;1.50;;;1.80;88.40;;;3.45;58.38;102388.69;3082475;46;20433;-66
2024/01/07 07:14:01;;;;;;;2.23;2.00;;;1.90;88.30;;;3.44;58.46;102390.44;3082978;46;20508;-67
2024/01/07 07:16:29;;;;;;;3.27;1.67;;;1.90;88.00;;;3.42;58.47;102403.50;3082435;46;21080;-67
2024/01/07 07:18:57;;;;;;;3.33;1.80;;;1.90;87.60;;;3.41;58.19;102401.84;3082722;46;20445;-67
2024/01/07 07:21:27;;;;;;;2.20;1.60;;;1.90;87.80;;;3.40;58.65;102407.97;3082810;46;20441;-66
2024/01/07 07:23:55;;;;;;;3.00;1.90;;;1.90;88.30;;;3.43;58.74;102406.97;3082962;46;20437;-66
2024/01/07 07:26:24;;;;;;;2.20;1.80;;;1.90;88.40;;;3.45;58.62;102415.50;3082697;46;21036;-67
2024/01/07 07:28:52;;;;;;;2.50;1.63;;;1.80;88.00;;;3.48;58.71;102417.09;3082855;46;20444;-67
2024/01/07 07:31:21;;;;;;;4.23;1.50;;;1.90;88.60;;;3.50;58.34;102420.44;3082725;46;20458;-66
2024/01/07 07:33:49;;;;;;;4.47;1.70;;;1.90;88.60;;;3.54;58.74;102425.44;3082762;46;20471;-67
2024/01/07 07:36:18;;;;;;;2.10;1.40;;;1.90;89.10;;;3.61;58.93;102431.97;3082566;46;20447;-67
2024/01/07 07:38:46;;;;;;;2.90;1.50;;;2.00;89.10;;;3.63;58.82;102427.50;3082238;46;20450;-66
2024/01/07 07:41:14;;;;;;;3.50;1.67;;;2.00;88.70;;;3.64;58.29;102431.75;3082272;46;20480;-67
2024/01/07 07:43:43;;;;;;;3.20;1.53;;;2.00;88.60;;;3.65;58.77;102438.66;3082799;46;20434;-67
2024/01/07 07:46:11;;;;;;;2.93;2.10;;;2.00;88.70;;;3.71;58.60;102438.28;3082398;46;20434;-67
2024/01/07 07:48:40;;;;;;;2.50;1.70;;;2.10;88.50;;;3.74;58.31;102438.13;3081707;46;21019;-67
2024/01/07 07:51:08;;;;;;;2.20;1.50;;;2.10;88.50;;;3.76;58.36;102440.63;3081980;46;21034;-66
2024/01/07 07:53:40;;;;;;;2.60;1.23;;;2.10;88.40;;;3.78;58.68;102447.41;3082212;46;21034;-66
2024/01/07 07:56:09;;;;;;;3.43;1.70;;;2.20;88.60;;;3.80;58.30;102443.00;3082360;46;20472;-65
2024/01/07 07:58:37;;;;;;;3.80;1.77;;;2.20;87.60;;;3.81;58.38;102449.84;3081733;46;20476;-67
2024/01/07 08:01:06;;;;;;;2.50;1.73;;;2.20;88.10;;;3.81;58.40;102449.84;3082037;46;20442;-67
2024/01/07 08:03:36;;;;;;;3.27;1.33;;;2.20;88.30;;;3.83;58.01;102458.41;3082696;46;21050;-66
2024/01/07 08:06:05;;;;;;;2.53;1.60;;;2.20;87.10;;;3.82;57.68;102456.75;3082107;46;20475;-66
2024/01/07 08:08:38;;;;;;;2.53;1.20;;;2.20;87.20;;;3.81;57.98;102460.25;3081694;46;20535;-67
2024/01/07 08:11:08;;;;;;;1.60;1.30;;;2.20;87.40;;;3.82;57.81;102474.13;3081811;46;21031;-67
2024/01/07 08:13:38;;;;;;;4.17;1.53;;;2.20;87.10;;;3.79;57.90;102475.16;3082337;46;20500;-64
2024/01/07 08:16:07;;;;;;;1.80;1.10;;;2.20;87.10;;;3.78;57.75;102481.25;3081414;46;20995;-68
2024/01/07 08:18:35;;;;;;;1.67;1.43;;;2.20;86.90;;;3.79;57.96;102482.97;3081511;46;20470;-67
2024/01/07 08:21:03;;;;;;;2.20;1.50;;;2.20;87.30;;;3.82;57.91;102482.78;3082021;46;20459;-67
2024/01/07 08:23:32;;;;;;;2.47;1.50;;;2.20;87.30;;;3.84;57.67;102483.53;3082085;46;21075;-66
2024/01/07 08:26:02;;;;;;;2.53;1.30;;;2.20;87.40;;;3.85;57.43;102487.78;3081647;46;20443;-67
2024/01/07 08:28:30;;;;;;;3.40;2.17;;;2.20;87.10;;;3.85;57.78;102482.59;3081434;46;20474;-65
2024/01/07 08:30:58;;;;;;;3.20;1.47;;;2.20;87.30;;;3.86;57.69;102488.66;3081510;46;21064;-67
2024/01/07 08:33:28;;;;;;;2.47;1.10;;;2.30;87.70;;;3.87;57.54;102488.56;3082135;46;20434;-66
2024/01/07 08:35:57;;;;;;;2.00;1.30;;;2.20;87.40;;;3.94;57.75;102496.88;3082178;46;20521;-67
2024/01/07 08:38:25;;;;;;;2.63;1.50;;;2.30;87.70;;;4.00;57.55;102502.56;3081471;46;20446;-66
2024/01/07 08:40:53;;;;;;;1.30;1.20;;;2.30;87.30;;;4.04;57.83;102504.03;3081594;46;20484;-67
2024/01/07 08:43:22;;;;;;;2.27;1.43;;;2.40;87.50;;;4.09;57.48;102512.44;3081742;46;20442;-67
2024/01/07 08:45:50;;;;;;;1.97;1.27;;;2.40;87.40;;;4.14;57.78;102506.94;3080899;46;20438;-67
2024/01/07 08:48:19;;;;;;;2.73;1.60;;;2.40;87.60;;;4.23;57.60;102513.41;3081223;46;20449;-67
2024/01/07 08:50:48;;;;;;;1.30;1.20;;;2.50;87.60;;;4.27;57.42;102520.97;3081493;46;20439;-67
2024/01/07 08:53:20;;;;;;;1.93;1.20;;;2.60;87.50;;;4.33;57.39;102527.56;3082085;46;20476;-67
2024/01/07 08:55:48;;;;;;;1.53;1.20;;;2.60;87.50;;;4.36;57.41;102527.38;3081807;46;20472;-67
2024/01/07 08:58:18;;;;;;;3.67;1.67;;;2.70;87.40;;;4.40;57.33;102536.69;3081434;46;20450;-67
2024/01/07 09:00:47;;;;;;;1.87;1.27;;;2.70;87.10;;;4.46;57.18;102541.56;3081173;46;20431;-67
2024/01/07 09:03:16;;;;;;;1.57;1.30;;;2.70;87.10;;;4.49;56.85;102546.59;3081755;46;21076;-66
2024/01/07 09:05:44;;;;;;;3.23;1.63;;;2.80;86.80;;;4.46;56.51;102546.78;3081786;46;21023;-67
2024/01/07 09:08:14;;;;;;;1.47;1.37;;;2.80;86.60;;;4.44;56.81;102539.06;3077474;43;20439;-66
2024/01/07 09:10:42;;;;;;;1.80;1.60;;;2.80;86.60;;;4.45;56.81;102547.69;3076331;46;20479;-67
2024/01/07 09:13:11;;;;;;;2.10;1.47;;;2.80;86.50;;;4.43;57.15;102546.94;3080064;46;20463;-67
2024/01/07 09:15:40;;;;;;;3.13;1.30;;;2.80;86.60;;;4.47;56.94;102548.47;3077353;46;21066;-67
2024/01/07 09:18:08;;;;;;;2.70;1.50;;;2.80;86.80;;;4.51;57.08;102547.34;3075653;46;21028;-67
2024/01/07 09:20:37;;;;;;;2.00;1.60;;;2.80;86.60;;;4.56;57.10;102553.13;3079655;46;21026;-67
2024/01/07 09:23:06;;;;;;;2.10;1.70;;;2.90;86.70;;;4.60;56.90;102549.41;3079690;46;20507;-68
2024/01/07 09:25:34;;;;;;;2.53;1.47;;;2.90;86.80;;;4.64;56.68;102556.09;3077657;46;20523;-68
2024/01/07 09:28:04;;;;;;;2.00;1.33;;;2.90;86.40;;;4.63;56.66;102559.66;3078242;46;21150;-69
2024/01/07 09:30:32;;;;;;;1.90;1.60;;;3.00;86.30;;;4.62;56.72;102565.78;3079302;46;20439;-67
2024/01/07 09:33:01;;;;;;;3.57;1.80;;;3.00;86.30;;;4.66;56.92;102562.06;3080174;46;21028;-67
2024/01/07 09:35:29;;;;;;;4.13;1.80;;;3.00;86.60;;;4.65;56.54;102563.84;3080172;46;20450;-68
2024/01/07 09:37:58;;;;;;;2.53;1.97;;;3.00;86.40;;;4.62;56.88;102568.38;3080066;46;20755;-68
2024/01/07 09:40:26;;;;;;;2.50;1.87;;;3.00;86.70;;;4.61;56.79;102566.72;3079465;43;20446;-67
2024/01/07 09:42:56;;;;;;;2.50;2.03;;;3.00;86.50;;;4.56;56.85;102572.22;3080997;46;20480;-67
2024/01/07 09:45:26;;;;;;;4.83;2.00;;;3.00;86.60;;;4.51;57.02;102570.81;3080675;46;20458;-68
2024/01/07 09:47:54;;;;;;;3.73;1.73;;;2.90;86.60;;;4.46;57.03;102572.84;3079212;46;20466;-68
2024/01/07 09:50:23;;;;;;;4.20;2.27;;;2.90;86.80;;;4.38;57.46;102572.44;3079576;46;20463;-68
2024/01/07 09:52:58;;;;;;;7.33;2.03;;;2.90;86.90;;;4.31;57.74;102579.78;3080077;46;20473;-68
2024/01/07 09:55:40;;;;;;;4.23;2.00;;;2.80;87.10;;;4.23;57.88;102570.72;3078477;46;20528;-68
2024/01/07 09:58:08;;;;;;;4.70;2.50;;;2.80;87.50;;;4.23;58.29;102575.94;3080115;44;20513;-67
2024/01/07 10:00:38;;;;;;;3.07;2.40;;;2.80;88.10;;;4.23;58.26;102578.56;3079348;46;20989;-68
2024/01/07 10:03:07;;;;;;;3.57;2.57;;;2.70;88.30;;;4.21;58.68;102577.81;3079034;46;20481;-67
2024/01/07 10:05:35;;;;;;;6.90;2.57;;;2.70;88.70;;;4.19;58.60;102588.28;3079355;46;20548;-68
2024/01/07 10:08:06;;;;;;;3.87;2.83;;;2.70;89.00;;;4.18;58.96;102588.41;3077630;46;21043;-68
2024/01/07 10:10:36;;;;;;;5.10;2.90;;;2.70;89.50;;;4.19;59.21;102590.06;3078825;46;21021;-68
2024/01/07 10:13:04;;;;;;;5.60;3.10;;;2.70;89.70;;;4.25;59.81;102587.13;3077729;43;21091;-65
2024/01/07 10:15:33;;;;;;;6.60;3.53;;;2.60;90.00;;;4.53;59.78;102595.00;3079841;46;20442;-65
2024/01/07 10:18:06;;;;;;;4.47;2.50;;;2.70;90.50;;;5.10;59.76;102591.53;3079281;46;21058;-67
2024/01/07 10:20:35;;;;;;;3.20;2.80;;;2.90;91.30;;;5.89;59.39;102597.03;3078346;46;21154;-67
2024/01/07 10:23:07;;;;;;;4.87;3.40;;;3.10;91.50;;;6.64;57.87;102602.44;3080354;46;20439;-67
2024/01/07 10:25:37;;;;;;;6.47;3.60;;;3.50;91.50;;;7.10;56.04;102594.94;3079160;43;21044;-67
2024/01/07 10:28:05;;;;;;;7.13;3.30;;;3.90;90.70;;;7.17;54.60;102597.94;3078436;46;21111;-67
2024/01/07 10:30:34;;;;;;;4.77;2.80;;;4.30;89.00;;;6.91;53.59;102599.75;3078693;46;20438;-67